Nashville, Tennessee
Traffic Map
Current Weather Conditions
Nashville, Tennessee
Scattered Clouds
Scattered Clouds
69°
Feels Like: 69°
Wind Chill: 69° Ceiling: Unl
Heat Index: 69° Visibility: 10mi
Dew Point: 48° Wind: 8mph
Humidity: 47% Direction: 130° (SE)
Pressure: 29.63in Gusts: 0mph
Raw Report DataKBNA 211953Z 13007KT 100V170 10SM FEW060 SCT250 21/09 A2963 RMK AO2 SLP030 T02060089
Traffic Incident Summary
Active as of:
Severity:
Category:
InformationThere was an issue retrieving the traffic information for this location. Please try a different location or try again shortly.
Advertisements
Track Severe Weather on mobile